首页
METAR-TAF:

METAR-TAF

机场 :

Hope, 不列颠哥伦比亚, 加拿大

纬度: 49-22N, 经度: 121-29W, 海拔: 39米

当前天气观测

该预报发布于4分钟前的01:17 UTC
静风
温度 4°C
湿度 100%
气压 1023 hPa
能見度: 3.6公里
多云层高于900英尺
阴天层高于1600英尺
小雨, 轻雾

METAR: CYHE 110117Z AUTO 00000KT 2 1/4SM -RA BR BKN009 OVC016 04/04 A3020 RMK VIS VRB 3/4-3 SLP231

时间: 17:21 (01:21 UTC)


TAF: 丢失

超过4000个机场的气象观测和天气预报(METAR&TAF报告)。

可查询的气象台以黄色和红色小点在地图上表示。

将鼠标移到小点上方,可查看气象台名称。

然后点击查看天气观测和预报。

如需切换地图:点击带黑十字的绿色按钮放大地图;点击带横线的绿色按钮缩小地图;或者点击绿色箭头查看邻近地区的地图。


METAR-TAF: